createdAt,value
2019-05-16T11:45:30.548Z,36.47
2019-05-16T11:47:58.293Z,35.74
2019-05-16T11:50:28.073Z,36.64
2019-05-16T11:52:56.916Z,36.09
2019-05-16T11:55:32.281Z,34.77
2019-05-16T11:57:56.745Z,34.66
2019-05-16T12:00:24.091Z,36.78
2019-05-16T12:02:51.742Z,35.99
2019-05-16T12:05:19.299Z,35.83
2019-05-16T12:07:48.587Z,35.81
2019-05-16T12:10:16.590Z,34.82
2019-05-16T12:12:44.233Z,35.50
2019-05-16T12:15:12.269Z,35.76
2019-05-16T12:17:39.968Z,35.90
2019-05-16T12:20:08.129Z,35.88
2019-05-16T12:22:37.734Z,36.36
2019-05-16T12:25:08.179Z,37.20
2019-05-16T12:27:41.972Z,36.06
2019-05-16T12:30:12.963Z,36.23
2019-05-16T12:32:37.190Z,36.75
2019-05-16T12:35:06.521Z,37.24
2019-05-16T12:37:37.155Z,38.21
2019-05-16T12:40:07.976Z,36.80
2019-05-16T12:42:36.534Z,36.41
2019-05-16T12:45:07.027Z,36.24
2019-05-16T12:54:22.015Z,38.39
2019-05-16T12:56:49.766Z,35.55
2019-05-16T12:59:20.597Z,36.32
2019-05-16T13:01:48.190Z,38.20
2019-05-16T13:04:18.953Z,35.88
2019-05-16T13:06:47.141Z,36.07
2019-05-16T13:09:14.940Z,37.01
2019-05-16T13:11:42.501Z,36.19
2019-05-16T13:14:11.391Z,36.51
2019-05-16T13:16:39.264Z,36.00
2019-05-16T13:19:23.205Z,35.49
2019-05-16T13:25:07.415Z,35.71
2019-05-16T13:27:37.015Z,36.83
2019-05-16T13:30:07.391Z,35.89
2019-05-16T13:32:37.531Z,34.92
2019-05-16T13:35:07.640Z,34.44
2019-05-16T13:37:35.512Z,33.37
2019-05-16T13:40:07.907Z,33.37
2019-05-16T13:42:36.864Z,33.73
2019-05-16T13:45:07.719Z,31.95
2019-05-16T13:47:37.660Z,31.80
2019-05-16T13:50:11.575Z,30.20
2019-05-16T13:52:36.667Z,30.73
2019-05-16T13:55:07.042Z,29.53
2019-05-16T13:57:37.124Z,27.90
2019-05-16T14:00:07.572Z,27.90
2019-05-16T14:02:37.562Z,26.83
2019-05-16T14:05:07.539Z,26.39
2019-05-16T14:07:37.340Z,25.51
2019-05-16T14:10:07.270Z,25.97
2019-05-16T14:12:36.743Z,26.81
2019-05-16T14:15:08.452Z,28.57
2019-05-16T14:17:37.007Z,28.21
2019-05-16T14:20:14.407Z,27.88
2019-05-16T14:22:38.696Z,28.26
2019-05-16T14:25:07.302Z,27.94
2019-05-16T14:27:34.990Z,27.25
2019-05-16T14:30:07.549Z,27.50
2019-05-16T14:32:40.521Z,28.26
2019-05-16T14:35:08.572Z,25.78
2019-05-16T14:37:37.858Z,26.61
2019-05-16T14:40:06.083Z,26.81
2019-05-16T14:42:33.563Z,26.73
2019-05-16T14:45:10.872Z,27.78
2019-05-16T14:47:30.980Z,28.47
2019-05-16T14:49:58.615Z,29.44
2019-05-16T14:52:27.966Z,29.66
2019-05-16T14:54:57.529Z,30.46
2019-05-16T14:57:27.388Z,29.35
2019-05-16T14:59:56.564Z,28.17
2019-05-16T15:02:27.255Z,28.15
2019-05-16T15:04:53.935Z,27.99
2019-05-16T15:07:21.577Z,27.89
2019-05-16T15:09:49.266Z,27.85
2019-05-16T15:12:17.352Z,26.39
2019-05-16T15:14:45.147Z,25.61
2019-05-16T15:17:12.770Z,25.67
2019-05-16T15:19:40.528Z,25.45
2019-05-16T15:22:08.248Z,25.78
2019-05-16T15:24:37.073Z,25.23
2019-05-16T15:27:07.914Z,25.60
2019-05-16T15:29:34.473Z,24.23
2019-05-16T15:32:02.139Z,24.23
2019-05-16T15:34:30.320Z,24.34
2019-05-16T15:36:59.965Z,24.85
2019-05-16T15:39:27.992Z,24.64
2019-05-16T15:41:56.625Z,23.74
2019-05-16T15:44:24.525Z,23.29
2019-05-16T15:46:52.198Z,22.84
2019-05-16T15:49:20.186Z,23.09
2019-05-16T15:51:47.707Z,22.38
2019-05-16T15:54:21.942Z,22.44
2019-05-16T15:56:49.473Z,22.38
2019-05-16T15:59:18.178Z,22.63
2019-05-16T16:01:47.371Z,23.34
2019-05-16T16:04:17.555Z,23.54
2019-05-16T16:06:47.383Z,23.10
2019-05-16T16:09:17.265Z,22.54
2019-05-16T16:11:44.583Z,22.12
2019-05-16T16:14:13.870Z,21.09
2019-05-16T16:16:41.511Z,21.05
2019-05-16T16:19:09.277Z,21.13
2019-05-16T16:21:38.019Z,21.00
2019-05-16T16:24:09.210Z,20.32
2019-05-16T16:26:38.157Z,20.34
2019-05-16T16:30:12.241Z,19.32
2019-05-16T16:32:40.238Z,19.17
2019-05-16T16:35:08.356Z,19.23
2019-05-16T16:37:37.688Z,19.14
2019-05-16T16:41:49.497Z,19.01
2019-05-16T16:46:42.254Z,18.94
2019-05-16T16:50:42.422Z,18.67
2019-05-16T16:53:30.977Z,18.50
2019-05-16T16:57:47.370Z,18.60
2019-05-16T17:00:17.291Z,18.66
2019-05-16T17:02:58.429Z,18.42
2019-05-16T17:05:42.114Z,18.14
2019-05-16T17:08:10.863Z,17.74
2019-05-16T17:10:39.557Z,17.76
2019-05-16T17:13:09.665Z,17.77
2019-05-16T17:15:38.376Z,17.54
2019-05-16T17:18:07.302Z,17.59
2019-05-16T17:31:01.765Z,16.74
2019-05-16T17:33:33.572Z,16.64
2019-05-16T17:36:09.254Z,16.65
2019-05-16T17:38:38.929Z,16.54
2019-05-16T17:41:10.464Z,16.46
2019-05-16T17:43:42.124Z,16.23
2019-05-16T17:46:13.865Z,16.26
2019-05-16T17:48:46.799Z,16.00
2019-05-16T17:51:18.563Z,15.81
2019-05-16T17:53:50.041Z,15.91
2019-05-16T17:56:20.739Z,15.94
2019-05-16T17:58:52.097Z,15.61
2019-05-16T18:01:23.682Z,15.53
2019-05-16T18:03:57.216Z,15.39
2019-05-16T18:06:29.122Z,15.37
2019-05-16T18:09:00.805Z,15.30
2019-05-16T18:11:32.552Z,15.16
2019-05-16T18:14:06.163Z,15.06
2019-05-16T18:16:51.726Z,15.05
2019-05-16T18:19:11.314Z,14.93
2019-05-16T18:21:42.978Z,14.83
2019-05-16T18:24:16.724Z,14.77
2019-05-16T18:26:48.129Z,14.71
2019-05-16T18:29:19.871Z,14.61
2019-05-16T18:31:51.540Z,14.54
2019-05-16T18:34:23.187Z,14.44
2019-05-16T18:36:57.086Z,14.38
2019-05-16T18:39:28.437Z,14.35
2019-05-16T18:42:00.041Z,14.32
2019-05-16T18:44:32.392Z,14.27
2019-05-16T18:47:08.444Z,14.22
2019-05-16T18:49:37.832Z,14.14
2019-05-16T18:52:09.536Z,14.06
2019-05-16T18:54:41.288Z,14.05
2019-05-16T18:57:12.808Z,14.01
2019-05-16T18:59:46.260Z,13.92
2019-05-16T19:02:18.099Z,13.87
2019-05-16T19:04:50.289Z,13.79
2019-05-16T19:07:22.284Z,13.72
2019-05-16T19:09:53.881Z,13.64
2019-05-16T19:12:26.276Z,13.58
2019-05-16T19:15:00.241Z,13.54
2019-05-16T19:17:31.563Z,13.47
2019-05-16T19:20:03.448Z,13.40
2019-05-16T19:22:37.158Z,13.33
2019-05-16T19:25:09.430Z,13.27
2019-05-16T19:27:41.192Z,13.22
2019-05-16T19:30:13.924Z,13.16
2019-05-16T19:32:46.875Z,13.12
2019-05-16T19:35:18.913Z,13.06
2019-05-16T19:37:50.645Z,12.98
2019-05-16T19:40:22.543Z,12.92
2019-05-16T19:42:56.567Z,12.84
2019-05-16T19:45:28.223Z,12.80
2019-05-16T19:47:59.921Z,12.75
2019-05-16T19:50:31.621Z,12.68
2019-05-16T19:53:03.284Z,12.61
2019-05-16T19:55:36.523Z,12.57
2019-05-16T19:58:10.330Z,12.50
2019-05-16T20:00:42.559Z,12.42
2019-05-16T20:03:16.523Z,12.38
2019-05-16T20:05:47.981Z,12.33
2019-05-16T20:08:19.740Z,12.27
2019-05-16T20:10:51.576Z,12.24
2019-05-16T20:13:23.404Z,12.18
2019-05-16T20:15:56.513Z,12.19
2019-05-16T20:18:28.535Z,12.19
2019-05-16T20:21:00.641Z,12.13
2019-05-16T20:23:32.128Z,12.14
2019-05-16T20:26:02.816Z,12.10
2019-05-16T20:28:34.233Z,12.07
2019-05-16T20:31:07.884Z,12.07
2019-05-16T20:33:39.510Z,12.03
2019-05-16T20:36:11.167Z,12.01
2019-05-16T20:38:42.984Z,11.95
2019-05-16T20:41:16.901Z,11.90
2019-05-16T20:43:48.246Z,11.88
2019-05-16T20:46:19.943Z,11.80
2019-05-16T20:48:51.491Z,11.79
2019-05-16T20:51:21.895Z,11.73
2019-05-16T20:53:53.428Z,11.69
2019-05-16T20:56:26.534Z,11.64
2019-05-16T20:58:58.286Z,11.59
2019-05-16T21:01:29.859Z,11.55
2019-05-16T21:04:01.464Z,11.52
2019-05-16T21:06:33.417Z,11.49
2019-05-16T21:09:06.740Z,11.47
2019-05-16T21:11:38.536Z,11.43
2019-05-16T21:14:10.167Z,11.39
2019-05-16T21:16:41.872Z,11.36
2019-05-16T21:19:13.674Z,11.36
2019-05-16T21:21:47.093Z,11.31
2019-05-16T21:24:18.830Z,11.32
2019-05-16T21:26:50.517Z,11.30
2019-05-16T21:29:22.348Z,11.28
2019-05-16T21:31:56.485Z,11.23
2019-05-16T21:34:27.597Z,11.22
2019-05-16T21:37:11.292Z,11.20
2019-05-16T21:39:32.811Z,11.17
2019-05-16T21:42:07.217Z,11.12
2019-05-16T21:44:37.775Z,11.07
2019-05-16T21:47:09.562Z,11.05
2019-05-16T21:49:41.314Z,10.98
2019-05-16T21:52:13.102Z,10.90
2019-05-16T21:54:47.052Z,10.87
2019-05-16T21:57:19.934Z,10.81
2019-05-16T21:59:51.635Z,10.74
2019-05-16T22:02:23.486Z,10.62
2019-05-16T22:04:56.898Z,10.57
2019-05-16T22:07:33.632Z,10.51
2019-05-16T22:10:03.100Z,10.46
2019-05-16T22:12:34.956Z,10.43
2019-05-16T22:15:07.397Z,10.37
2019-05-16T22:17:39.161Z,10.30
2019-05-16T22:20:11.434Z,10.25
2019-05-16T22:22:43.115Z,10.17
2019-05-16T22:25:16.733Z,10.16
2019-05-16T22:27:49.031Z,10.15
